DAL2354 KMCO-KJFK
Flight info
| Callsign | DAL2354 |
|---|---|
| Flight time | 1h 56m |
| Altitude | 35000 |
| Route | FATHE4 VIYAP Q87 JROSS YURCK Q109 DFENC SAWED Q108 SIE CAMRN5 |
| Aircraft | A321/M-SDE3FGHIRWY/LB1 |
Departure
| Time | 2026-05-04 01:23 |
|---|---|
| Airport | Orlando International Airport (KMCO) |
Arrival
| Time | 2026-05-04 03:20 |
|---|---|
| Airport | John F. Kennedy International Airport (KJFK) |
| Time | Latitude | Longitude | Altitude | Speed | Heading |
|---|---|---|---|---|---|
| 2026-05-04 01:05 | 28.42907 | -81.30057 | 76 ft | 0 kts | 182° |
| 2026-05-04 01:11 | 28.42916 | -81.30056 | 94 ft | 2 kts | 182° |
| 2026-05-04 01:11 | 28.42933 | -81.30055 | 94 ft | 2 kts | 182° |
| 2026-05-04 01:11 | 28.42949 | -81.30056 | 96 ft | 2 kts | 159° |
| 2026-05-04 01:12 | 28.42963 | -81.30065 | 93 ft | 2 kts | 126° |
| 2026-05-04 01:12 | 28.42969 | -81.30082 | 93 ft | 1 kts | 69° |
| 2026-05-04 01:12 | 28.42970 | -81.30079 | 92 ft | 0 kts | 69° |
| 2026-05-04 01:14 | 28.42971 | -81.30077 | 92 ft | 1 kts | 69° |
| 2026-05-04 01:14 | 28.42978 | -81.30045 | 94 ft | 7 kts | 83° |
| 2026-05-04 01:14 | 28.42966 | -81.29985 | 95 ft | 7 kts | 114° |
| 2026-05-04 01:14 | 28.42949 | -81.29948 | 98 ft | 3 kts | 119° |
| 2026-05-04 01:15 | 28.42939 | -81.29929 | 96 ft | 4 kts | 119° |
| 2026-05-04 01:15 | 28.42919 | -81.29887 | 96 ft | 6 kts | 118° |
| 2026-05-04 01:15 | 28.42914 | -81.29861 | 98 ft | 3 kts | 93° |
| 2026-05-04 01:15 | 28.42915 | -81.29809 | 94 ft | 9 kts | 90° |
| 2026-05-04 01:16 | 28.42913 | -81.29756 | 95 ft | 5 kts | 99° |
| 2026-05-04 01:16 | 28.42898 | -81.29723 | 96 ft | 5 kts | 132° |
| 2026-05-04 01:16 | 28.42860 | -81.29707 | 97 ft | 8 kts | 171° |
| 2026-05-04 01:16 | 28.42778 | -81.29701 | 95 ft | 15 kts | 179° |
| 2026-05-04 01:17 | 28.42673 | -81.29701 | 96 ft | 13 kts | 180° |
| 2026-05-04 01:17 | 28.42593 | -81.29701 | 95 ft | 10 kts | 180° |
| 2026-05-04 01:17 | 28.42541 | -81.29701 | 97 ft | 6 kts | 180° |
| 2026-05-04 01:17 | 28.42494 | -81.29701 | 95 ft | 8 kts | 179° |
| 2026-05-04 01:18 | 28.42428 | -81.29699 | 95 ft | 10 kts | 179° |
| 2026-05-04 01:18 | 28.42364 | -81.29698 | 96 ft | 8 kts | 179° |
| 2026-05-04 01:18 | 28.42307 | -81.29697 | 96 ft | 10 kts | 179° |
| 2026-05-04 01:18 | 28.42202 | -81.29696 | 94 ft | 17 kts | 179° |
| 2026-05-04 01:19 | 28.42091 | -81.29695 | 97 ft | 15 kts | 179° |
| 2026-05-04 01:19 | 28.41994 | -81.29693 | 95 ft | 13 kts | 179° |
| 2026-05-04 01:19 | 28.41909 | -81.29691 | 96 ft | 11 kts | 178° |
| 2026-05-04 01:19 | 28.41836 | -81.29688 | 96 ft | 10 kts | 178° |
| 2026-05-04 01:20 | 28.41767 | -81.29688 | 99 ft | 13 kts | 181° |
| 2026-05-04 01:20 | 28.41632 | -81.29687 | 96 ft | 22 kts | 177° |
| 2026-05-04 01:20 | 28.41484 | -81.29687 | 96 ft | 21 kts | 180° |
| 2026-05-04 01:20 | 28.41345 | -81.29684 | 95 ft | 19 kts | 178° |
| 2026-05-04 01:21 | 28.41217 | -81.29682 | 96 ft | 18 kts | 180° |
| 2026-05-04 01:21 | 28.41102 | -81.29682 | 95 ft | 16 kts | 180° |
| 2026-05-04 01:21 | 28.40994 | -81.29681 | 96 ft | 15 kts | 180° |
| 2026-05-04 01:21 | 28.40895 | -81.29681 | 96 ft | 13 kts | 180° |
| 2026-05-04 01:22 | 28.40824 | -81.29645 | 94 ft | 11 kts | 114° |
| 2026-05-04 01:22 | 28.40841 | -81.29571 | 94 ft | 10 kts | 44° |
| 2026-05-04 01:22 | 28.40900 | -81.29563 | 95 ft | 8 kts | 0° |
| 2026-05-04 01:22 | 28.40985 | -81.29562 | 94 ft | 29 kts | 360° |
| 2026-05-04 01:23 | 28.41430 | -81.29568 | 98 ft | 95 kts | 359° |
| 2026-05-04 01:23 | 28.42276 | -81.29578 | 97 ft | 145 kts | 356° |
| 2026-05-04 01:23 | 28.43391 | -81.29581 | 316 ft | 166 kts | 1° |
| 2026-05-04 01:23 | 28.44527 | -81.29501 | 935 ft | 167 kts | 13° |
| 2026-05-04 01:24 | 28.45609 | -81.29052 | 1553 ft | 169 kts | 31° |
| 2026-05-04 01:24 | 28.46709 | -81.28378 | 1750 ft | 191 kts | 31° |
| 2026-05-04 01:24 | 28.47934 | -81.27597 | 1986 ft | 213 kts | 32° |
| 2026-05-04 01:24 | 28.49300 | -81.26715 | 2250 ft | 237 kts | 32° |
| 2026-05-04 01:25 | 28.50769 | -81.25767 | 2792 ft | 247 kts | 30° |
| 2026-05-04 01:25 | 28.52430 | -81.25228 | 3396 ft | 259 kts | 6° |
| 2026-05-04 01:25 | 28.54250 | -81.25087 | 4055 ft | 265 kts | 5° |
| 2026-05-04 01:25 | 28.56116 | -81.25061 | 4723 ft | 271 kts | 359° |
| 2026-05-04 01:26 | 28.58021 | -81.25135 | 5380 ft | 276 kts | 356° |
| 2026-05-04 01:26 | 28.59938 | -81.25373 | 6114 ft | 278 kts | 352° |
| 2026-05-04 01:26 | 28.61852 | -81.25689 | 6761 ft | 280 kts | 350° |
| 2026-05-04 01:26 | 28.63791 | -81.26018 | 7247 ft | 282 kts | 350° |
| 2026-05-04 01:27 | 28.65738 | -81.26322 | 7979 ft | 283 kts | 350° |
| 2026-05-04 01:27 | 28.67697 | -81.26608 | 8676 ft | 285 kts | 350° |
| 2026-05-04 01:27 | 28.69672 | -81.26882 | 9346 ft | 288 kts | 349° |
| 2026-05-04 01:27 | 28.71645 | -81.27150 | 10020 ft | 290 kts | 349° |
| 2026-05-04 01:28 | 28.73686 | -81.27427 | 10323 ft | 306 kts | 348° |
| 2026-05-04 01:28 | 28.75866 | -81.27731 | 10449 ft | 326 kts | 349° |
| 2026-05-04 01:28 | 28.78190 | -81.28056 | 10567 ft | 346 kts | 349° |
| 2026-05-04 01:28 | 28.80642 | -81.28394 | 10796 ft | 361 kts | 349° |
| 2026-05-04 01:29 | 28.83159 | -81.28737 | 11277 ft | 367 kts | 349° |
| 2026-05-04 01:29 | 28.85709 | -81.29056 | 11821 ft | 372 kts | 350° |
| 2026-05-04 01:29 | 28.88305 | -81.29306 | 12380 ft | 376 kts | 351° |
| 2026-05-04 01:29 | 28.90930 | -81.29515 | 12944 ft | 380 kts | 351° |
| 2026-05-04 01:30 | 28.93584 | -81.29709 | 13518 ft | 384 kts | 351° |
| 2026-05-04 01:30 | 28.95355 | -81.29841 | 13888 ft | 387 kts | 351° |
| 2026-05-04 01:30 | 28.98935 | -81.30120 | 14546 ft | 392 kts | 350° |
| 2026-05-04 01:30 | 29.01670 | -81.30364 | 15027 ft | 395 kts | 349° |
| 2026-05-04 01:31 | 29.04417 | -81.30658 | 15501 ft | 398 kts | 348° |
| 2026-05-04 01:31 | 29.06250 | -81.30869 | 15815 ft | 401 kts | 348° |
| 2026-05-04 01:31 | 29.09039 | -81.31201 | 16284 ft | 404 kts | 347° |
| 2026-05-04 01:31 | 29.11854 | -81.31521 | 16736 ft | 409 kts | 348° |
| 2026-05-04 01:32 | 29.14714 | -81.31765 | 17180 ft | 414 kts | 349° |
| 2026-05-04 01:32 | 29.17606 | -81.31944 | 17620 ft | 419 kts | 351° |
| 2026-05-04 01:32 | 29.20539 | -81.32088 | 18039 ft | 423 kts | 351° |
| 2026-05-04 01:32 | 29.23450 | -81.32221 | 18458 ft | 427 kts | 351° |
| 2026-05-04 01:33 | 29.26434 | -81.32366 | 18829 ft | 429 kts | 350° |
| 2026-05-04 01:33 | 29.29428 | -81.32525 | 19222 ft | 432 kts | 350° |
| 2026-05-04 01:33 | 29.32442 | -81.32697 | 19620 ft | 434 kts | 350° |
| 2026-05-04 01:33 | 29.35464 | -81.32882 | 20011 ft | 436 kts | 350° |
| 2026-05-04 01:34 | 29.38495 | -81.33074 | 20399 ft | 438 kts | 349° |
| 2026-05-04 01:34 | 29.41551 | -81.33264 | 20780 ft | 440 kts | 349° |
| 2026-05-04 01:34 | 29.44622 | -81.33452 | 21162 ft | 443 kts | 349° |
| 2026-05-04 01:34 | 29.47705 | -81.33639 | 21545 ft | 445 kts | 349° |
| 2026-05-04 01:35 | 29.50767 | -81.33825 | 21923 ft | 447 kts | 349° |
| 2026-05-04 01:35 | 29.53881 | -81.34014 | 22307 ft | 450 kts | 349° |
| 2026-05-04 01:35 | 29.57022 | -81.34202 | 22686 ft | 452 kts | 349° |
| 2026-05-04 01:35 | 29.60170 | -81.34390 | 23045 ft | 455 kts | 349° |
| 2026-05-04 01:36 | 29.63337 | -81.34577 | 23425 ft | 457 kts | 349° |
| 2026-05-04 01:36 | 29.66527 | -81.34766 | 23767 ft | 460 kts | 350° |
| 2026-05-04 01:36 | 29.69729 | -81.34952 | 24067 ft | 462 kts | 350° |
| 2026-05-04 01:36 | 29.72952 | -81.35138 | 24380 ft | 464 kts | 350° |
| 2026-05-04 01:37 | 29.76141 | -81.35322 | 24678 ft | 466 kts | 349° |
| 2026-05-04 01:37 | 29.79389 | -81.35509 | 24979 ft | 468 kts | 349° |
| 2026-05-04 01:37 | 29.82647 | -81.35696 | 25281 ft | 469 kts | 349° |
| 2026-05-04 01:37 | 29.85918 | -81.35881 | 25576 ft | 471 kts | 349° |
| 2026-05-04 01:38 | 29.89196 | -81.36065 | 25871 ft | 473 kts | 349° |
| 2026-05-04 01:38 | 29.92502 | -81.36251 | 26153 ft | 475 kts | 349° |
| 2026-05-04 01:38 | 29.95816 | -81.36442 | 26436 ft | 477 kts | 349° |
| 2026-05-04 01:38 | 29.99134 | -81.36632 | 26709 ft | 479 kts | 349° |
| 2026-05-04 01:39 | 30.02426 | -81.36821 | 26970 ft | 481 kts | 349° |
| 2026-05-04 01:39 | 30.05771 | -81.37013 | 27239 ft | 482 kts | 349° |
| 2026-05-04 01:39 | 30.09135 | -81.37207 | 27508 ft | 484 kts | 349° |
| 2026-05-04 01:39 | 30.12505 | -81.37401 | 27772 ft | 486 kts | 349° |
| 2026-05-04 01:40 | 30.15889 | -81.37599 | 28041 ft | 488 kts | 349° |
| 2026-05-04 01:40 | 30.19287 | -81.37800 | 28302 ft | 489 kts | 349° |
| 2026-05-04 01:40 | 30.22664 | -81.37999 | 28548 ft | 491 kts | 349° |
| 2026-05-04 01:40 | 30.25767 | -81.38179 | 28856 ft | 491 kts | 349° |
| 2026-05-04 01:41 | 30.29171 | -81.38372 | 29225 ft | 490 kts | 349° |
| 2026-05-04 01:41 | 30.32530 | -81.38560 | 29578 ft | 489 kts | 349° |
| 2026-05-04 01:41 | 30.35922 | -81.38753 | 29918 ft | 488 kts | 349° |
| 2026-05-04 01:41 | 30.39313 | -81.38950 | 30242 ft | 488 kts | 349° |
| 2026-05-04 01:42 | 30.42706 | -81.39146 | 30526 ft | 487 kts | 349° |
| 2026-05-04 01:42 | 30.46089 | -81.39345 | 30815 ft | 486 kts | 349° |
| 2026-05-04 01:42 | 30.49477 | -81.39541 | 31104 ft | 486 kts | 349° |
| 2026-05-04 01:42 | 30.52850 | -81.39722 | 31414 ft | 485 kts | 349° |
| 2026-05-04 01:43 | 30.56224 | -81.39895 | 31718 ft | 485 kts | 349° |
| 2026-05-04 01:43 | 30.59545 | -81.40065 | 32009 ft | 484 kts | 349° |
| 2026-05-04 01:43 | 30.62906 | -81.40236 | 32308 ft | 483 kts | 348° |
| 2026-05-04 01:43 | 30.66260 | -81.40412 | 32606 ft | 482 kts | 348° |
| 2026-05-04 01:44 | 30.69609 | -81.40591 | 32891 ft | 481 kts | 348° |
| 2026-05-04 01:44 | 30.72962 | -81.40771 | 33193 ft | 481 kts | 348° |
| 2026-05-04 01:44 | 30.76299 | -81.40947 | 33485 ft | 480 kts | 348° |
| 2026-05-04 01:44 | 30.79638 | -81.41124 | 33766 ft | 479 kts | 348° |
| 2026-05-04 01:45 | 30.82967 | -81.41301 | 34053 ft | 479 kts | 348° |
| 2026-05-04 01:45 | 30.86251 | -81.41475 | 34300 ft | 478 kts | 348° |
| 2026-05-04 01:45 | 30.92890 | -81.41830 | 34730 ft | 477 kts | 347° |
| 2026-05-04 01:46 | 30.96209 | -81.42009 | 34946 ft | 477 kts | 347° |
| 2026-05-04 01:46 | 30.99529 | -81.42189 | 35100 ft | 478 kts | 347° |
| 2026-05-04 01:46 | 31.06237 | -81.42554 | 35141 ft | 485 kts | 347° |
| 2026-05-04 01:47 | 31.12940 | -81.42906 | 35142 ft | 486 kts | 348° |
| 2026-05-04 01:47 | 31.19704 | -81.43264 | 35139 ft | 486 kts | 348° |
| 2026-05-04 01:48 | 31.23118 | -81.43201 | 35158 ft | 497 kts | 357° |
| 2026-05-04 01:48 | 31.26567 | -81.42468 | 35159 ft | 510 kts | 8° |
| 2026-05-04 01:48 | 31.33219 | -81.39243 | 35162 ft | 521 kts | 18° |
| 2026-05-04 01:49 | 31.39798 | -81.35663 | 35158 ft | 521 kts | 18° |
| 2026-05-04 01:49 | 31.46341 | -81.32112 | 35157 ft | 522 kts | 18° |
| 2026-05-04 01:50 | 31.52933 | -81.28539 | 35153 ft | 522 kts | 18° |
| 2026-05-04 01:50 | 31.59525 | -81.24955 | 35146 ft | 522 kts | 18° |
| 2026-05-04 01:51 | 31.66116 | -81.21351 | 35144 ft | 522 kts | 18° |
| 2026-05-04 01:51 | 31.72654 | -81.17775 | 35135 ft | 522 kts | 18° |
| 2026-05-04 01:52 | 31.79241 | -81.14168 | 35130 ft | 522 kts | 19° |
| 2026-05-04 01:52 | 31.85823 | -81.10563 | 35127 ft | 522 kts | 19° |
| 2026-05-04 01:53 | 31.92405 | -81.06950 | 35125 ft | 522 kts | 19° |
| 2026-05-04 01:53 | 31.98986 | -81.03327 | 35127 ft | 522 kts | 19° |
| 2026-05-04 01:54 | 32.05560 | -80.99689 | 35132 ft | 522 kts | 19° |
| 2026-05-04 01:54 | 32.12088 | -80.96019 | 35134 ft | 522 kts | 19° |
| 2026-05-04 01:55 | 32.18652 | -80.92330 | 35167 ft | 522 kts | 19° |
| 2026-05-04 01:55 | 32.25220 | -80.88649 | 35169 ft | 522 kts | 19° |
| 2026-05-04 01:56 | 32.31748 | -80.84989 | 35171 ft | 522 kts | 19° |
| 2026-05-04 01:56 | 32.38313 | -80.81293 | 35157 ft | 522 kts | 19° |
| 2026-05-04 01:57 | 32.44885 | -80.77580 | 35158 ft | 523 kts | 19° |
| 2026-05-04 01:57 | 32.51417 | -80.73889 | 35155 ft | 523 kts | 19° |
| 2026-05-04 01:58 | 32.57984 | -80.70182 | 35156 ft | 522 kts | 19° |
| 2026-05-04 01:58 | 32.64547 | -80.66463 | 35153 ft | 522 kts | 19° |
| 2026-05-04 01:59 | 32.70969 | -80.62363 | 35165 ft | 530 kts | 31° |
| 2026-05-04 01:59 | 32.76497 | -80.56487 | 35168 ft | 536 kts | 41° |
| 2026-05-04 02:00 | 32.81794 | -80.50332 | 35169 ft | 536 kts | 41° |
| 2026-05-04 02:00 | 32.87139 | -80.44151 | 35169 ft | 536 kts | 41° |
| 2026-05-04 02:01 | 32.92482 | -80.37951 | 35150 ft | 536 kts | 41° |
| 2026-05-04 02:01 | 32.97787 | -80.31783 | 35150 ft | 536 kts | 41° |
| 2026-05-04 02:02 | 33.03123 | -80.25555 | 35149 ft | 536 kts | 41° |
| 2026-05-04 02:02 | 33.08447 | -80.19325 | 35132 ft | 536 kts | 41° |
| 2026-05-04 02:03 | 33.13750 | -80.13116 | 35155 ft | 536 kts | 41° |
| 2026-05-04 02:03 | 33.19067 | -80.06870 | 35163 ft | 536 kts | 41° |
| 2026-05-04 02:04 | 33.24385 | -80.00624 | 35165 ft | 536 kts | 41° |
| 2026-05-04 02:04 | 33.29700 | -79.94378 | 35157 ft | 536 kts | 41° |
| 2026-05-04 02:05 | 33.35011 | -79.88119 | 35149 ft | 536 kts | 41° |
| 2026-05-04 02:05 | 33.40283 | -79.81884 | 35149 ft | 536 kts | 41° |
| 2026-05-04 02:06 | 33.45577 | -79.75605 | 35144 ft | 536 kts | 41° |
| 2026-05-04 02:06 | 33.50875 | -79.69322 | 35153 ft | 535 kts | 41° |
| 2026-05-04 02:07 | 33.56164 | -79.63035 | 35151 ft | 535 kts | 41° |
| 2026-05-04 02:07 | 33.61450 | -79.56749 | 35147 ft | 535 kts | 41° |
| 2026-05-04 02:08 | 33.66696 | -79.50496 | 35145 ft | 535 kts | 41° |
| 2026-05-04 02:08 | 33.71974 | -79.44177 | 35146 ft | 535 kts | 41° |
| 2026-05-04 02:09 | 33.77247 | -79.37864 | 35157 ft | 535 kts | 41° |
| 2026-05-04 02:09 | 33.82524 | -79.31547 | 35163 ft | 535 kts | 41° |
| 2026-05-04 02:10 | 33.87762 | -79.25257 | 35164 ft | 535 kts | 41° |
| 2026-05-04 02:10 | 33.93018 | -79.18926 | 35167 ft | 535 kts | 41° |
| 2026-05-04 02:11 | 33.98281 | -79.12593 | 35161 ft | 534 kts | 41° |
| 2026-05-04 02:11 | 34.03497 | -79.06296 | 35153 ft | 535 kts | 41° |
| 2026-05-04 02:12 | 34.08744 | -78.99931 | 35146 ft | 535 kts | 41° |
| 2026-05-04 02:12 | 34.13989 | -78.93570 | 35156 ft | 534 kts | 41° |
| 2026-05-04 02:13 | 34.19031 | -78.86964 | 35166 ft | 538 kts | 52° |
| 2026-05-04 02:13 | 34.22954 | -78.79301 | 35175 ft | 540 kts | 58° |
| 2026-05-04 02:14 | 34.26803 | -78.71504 | 35173 ft | 540 kts | 57° |
| 2026-05-04 02:14 | 34.30682 | -78.63723 | 35172 ft | 539 kts | 54° |
| 2026-05-04 02:15 | 34.35481 | -78.56935 | 35163 ft | 530 kts | 36° |
| 2026-05-04 02:15 | 34.41243 | -78.51416 | 35138 ft | 527 kts | 32° |
| 2026-05-04 02:16 | 34.47036 | -78.45948 | 35142 ft | 527 kts | 33° |
| 2026-05-04 02:16 | 34.52817 | -78.40473 | 35149 ft | 528 kts | 33° |
| 2026-05-04 02:17 | 34.58563 | -78.35016 | 35148 ft | 528 kts | 33° |
| 2026-05-04 02:17 | 34.64338 | -78.29513 | 35143 ft | 528 kts | 33° |
| 2026-05-04 02:18 | 34.70108 | -78.24005 | 35149 ft | 527 kts | 33° |
| 2026-05-04 02:18 | 34.75877 | -78.18499 | 35158 ft | 527 kts | 33° |
| 2026-05-04 02:19 | 34.81649 | -78.12987 | 35159 ft | 527 kts | 33° |
| 2026-05-04 02:19 | 34.87378 | -78.07500 | 35165 ft | 527 kts | 33° |
| 2026-05-04 02:20 | 34.93152 | -78.01989 | 35171 ft | 527 kts | 33° |
| 2026-05-04 02:20 | 34.98922 | -77.96480 | 35170 ft | 527 kts | 33° |
| 2026-05-04 02:21 | 35.04687 | -77.90957 | 35165 ft | 527 kts | 33° |
| 2026-05-04 02:21 | 35.10447 | -77.85424 | 35172 ft | 527 kts | 33° |
| 2026-05-04 02:22 | 35.16170 | -77.79922 | 35160 ft | 527 kts | 33° |
| 2026-05-04 02:22 | 35.21929 | -77.74375 | 35160 ft | 527 kts | 33° |
| 2026-05-04 02:23 | 35.27685 | -77.68827 | 35161 ft | 527 kts | 33° |
| 2026-05-04 02:23 | 35.33411 | -77.63288 | 35167 ft | 527 kts | 33° |
| 2026-05-04 02:24 | 35.39163 | -77.57710 | 35170 ft | 527 kts | 33° |
| 2026-05-04 02:24 | 35.44879 | -77.52167 | 35168 ft | 526 kts | 33° |
| 2026-05-04 02:25 | 35.50615 | -77.46578 | 35160 ft | 526 kts | 33° |
| 2026-05-04 02:25 | 35.56348 | -77.40985 | 35167 ft | 526 kts | 33° |
| 2026-05-04 02:26 | 35.62077 | -77.35393 | 35165 ft | 525 kts | 33° |
| 2026-05-04 02:26 | 35.67759 | -77.29838 | 35173 ft | 525 kts | 33° |
| 2026-05-04 02:27 | 35.73479 | -77.24236 | 35174 ft | 525 kts | 33° |
| 2026-05-04 02:27 | 35.79194 | -77.18638 | 35180 ft | 524 kts | 33° |
| 2026-05-04 02:28 | 35.84867 | -77.13063 | 35184 ft | 524 kts | 33° |
| 2026-05-04 02:28 | 35.90559 | -77.07445 | 35180 ft | 523 kts | 32° |
| 2026-05-04 02:29 | 35.96617 | -77.02669 | 35174 ft | 515 kts | 24° |
| 2026-05-04 02:29 | 36.02761 | -76.98208 | 35166 ft | 515 kts | 24° |
| 2026-05-04 02:30 | 36.08924 | -76.93705 | 35159 ft | 514 kts | 24° |
| 2026-05-04 02:30 | 36.15080 | -76.89195 | 35156 ft | 514 kts | 24° |
| 2026-05-04 02:31 | 36.21227 | -76.84691 | 35153 ft | 513 kts | 24° |
| 2026-05-04 02:31 | 36.27340 | -76.80199 | 35147 ft | 513 kts | 24° |
| 2026-05-04 02:32 | 36.33483 | -76.75670 | 35140 ft | 513 kts | 24° |
| 2026-05-04 02:32 | 36.39629 | -76.71147 | 35153 ft | 513 kts | 24° |
| 2026-05-04 02:33 | 36.45772 | -76.66627 | 35159 ft | 513 kts | 24° |
| 2026-05-04 02:33 | 36.51877 | -76.62118 | 35172 ft | 514 kts | 24° |
| 2026-05-04 02:34 | 36.58023 | -76.57561 | 35183 ft | 514 kts | 24° |
| 2026-05-04 02:34 | 36.64169 | -76.53001 | 35181 ft | 514 kts | 24° |
| 2026-05-04 02:35 | 36.70276 | -76.48453 | 35170 ft | 514 kts | 24° |
| 2026-05-04 02:35 | 36.76422 | -76.43873 | 35177 ft | 514 kts | 24° |
| 2026-05-04 02:36 | 36.82567 | -76.39280 | 35170 ft | 514 kts | 24° |
| 2026-05-04 02:36 | 36.88667 | -76.34717 | 35146 ft | 515 kts | 23° |
| 2026-05-04 02:37 | 36.94812 | -76.30122 | 35151 ft | 515 kts | 23° |
| 2026-05-04 02:37 | 37.00951 | -76.25514 | 35143 ft | 515 kts | 23° |
| 2026-05-04 02:38 | 37.07095 | -76.20894 | 35146 ft | 515 kts | 23° |
| 2026-05-04 02:38 | 37.13238 | -76.16272 | 35149 ft | 515 kts | 23° |
| 2026-05-04 02:39 | 37.19340 | -76.11663 | 35152 ft | 515 kts | 23° |
| 2026-05-04 02:39 | 37.25494 | -76.07030 | 35152 ft | 515 kts | 23° |
| 2026-05-04 02:40 | 37.31657 | -76.02444 | 35150 ft | 515 kts | 22° |
| 2026-05-04 02:40 | 37.37789 | -75.97894 | 35155 ft | 515 kts | 22° |
| 2026-05-04 02:41 | 37.43963 | -75.93288 | 35156 ft | 515 kts | 22° |
| 2026-05-04 02:41 | 37.50116 | -75.88663 | 35157 ft | 515 kts | 22° |
| 2026-05-04 02:42 | 37.56237 | -75.84049 | 35156 ft | 515 kts | 22° |
| 2026-05-04 02:42 | 37.62388 | -75.79420 | 35159 ft | 515 kts | 22° |
| 2026-05-04 02:43 | 37.68542 | -75.74782 | 35163 ft | 515 kts | 22° |
| 2026-05-04 02:43 | 37.74691 | -75.70140 | 35159 ft | 515 kts | 22° |
| 2026-05-04 02:44 | 37.80836 | -75.65490 | 35150 ft | 515 kts | 22° |
| 2026-05-04 02:44 | 37.86984 | -75.60832 | 35148 ft | 515 kts | 22° |
| 2026-05-04 02:45 | 37.93089 | -75.56188 | 35155 ft | 515 kts | 22° |
| 2026-05-04 02:45 | 37.99228 | -75.51506 | 35155 ft | 515 kts | 22° |
| 2026-05-04 02:46 | 38.05369 | -75.46824 | 35148 ft | 515 kts | 22° |
| 2026-05-04 02:46 | 38.11467 | -75.42172 | 35140 ft | 515 kts | 22° |
| 2026-05-04 02:47 | 38.17606 | -75.37469 | 34984 ft | 516 kts | 22° |
| 2026-05-04 02:47 | 38.20677 | -75.35111 | 34518 ft | 513 kts | 22° |
| 2026-05-04 02:47 | 38.23722 | -75.32770 | 34288 ft | 511 kts | 22° |
| 2026-05-04 02:48 | 38.26763 | -75.30434 | 34060 ft | 510 kts | 22° |
| 2026-05-04 02:48 | 38.29798 | -75.28100 | 33792 ft | 508 kts | 22° |
| 2026-05-04 02:48 | 38.32812 | -75.25780 | 33518 ft | 505 kts | 22° |
| 2026-05-04 02:48 | 38.35821 | -75.23458 | 33261 ft | 503 kts | 22° |
| 2026-05-04 02:49 | 38.38803 | -75.21152 | 32997 ft | 500 kts | 22° |
| 2026-05-04 02:49 | 38.41735 | -75.18884 | 32744 ft | 497 kts | 22° |
| 2026-05-04 02:49 | 38.44684 | -75.16600 | 32488 ft | 494 kts | 22° |
| 2026-05-04 02:49 | 38.47619 | -75.14326 | 32229 ft | 492 kts | 22° |
| 2026-05-04 02:50 | 38.50535 | -75.12065 | 31974 ft | 489 kts | 21° |
| 2026-05-04 02:50 | 38.53442 | -75.09813 | 31713 ft | 486 kts | 21° |
| 2026-05-04 02:50 | 38.55352 | -75.08334 | 31553 ft | 484 kts | 21° |
| 2026-05-04 02:50 | 38.59156 | -75.05387 | 31217 ft | 481 kts | 21° |
| 2026-05-04 02:51 | 38.62010 | -75.03174 | 30972 ft | 478 kts | 21° |
| 2026-05-04 02:51 | 38.64843 | -75.00970 | 30718 ft | 475 kts | 21° |
| 2026-05-04 02:51 | 38.67662 | -74.98773 | 30484 ft | 473 kts | 21° |
| 2026-05-04 02:51 | 38.70467 | -74.96585 | 30242 ft | 470 kts | 21° |
| 2026-05-04 02:52 | 38.72312 | -74.95144 | 30082 ft | 469 kts | 22° |
| 2026-05-04 02:52 | 38.74998 | -74.93044 | 29804 ft | 466 kts | 22° |
| 2026-05-04 02:52 | 38.77754 | -74.90890 | 29530 ft | 463 kts | 22° |
| 2026-05-04 02:52 | 38.81378 | -74.88048 | 29162 ft | 459 kts | 22° |
| 2026-05-04 02:53 | 38.84095 | -74.85918 | 28887 ft | 456 kts | 22° |
| 2026-05-04 02:53 | 38.85924 | -74.84484 | 28706 ft | 454 kts | 22° |
| 2026-05-04 02:53 | 38.88580 | -74.82399 | 28435 ft | 451 kts | 22° |
| 2026-05-04 02:53 | 38.91256 | -74.80297 | 28172 ft | 449 kts | 22° |
| 2026-05-04 02:54 | 38.93917 | -74.78207 | 27906 ft | 446 kts | 22° |
| 2026-05-04 02:54 | 38.96558 | -74.76130 | 27641 ft | 444 kts | 22° |
| 2026-05-04 02:54 | 38.99183 | -74.74060 | 27378 ft | 441 kts | 22° |
| 2026-05-04 02:54 | 39.01797 | -74.72001 | 27117 ft | 439 kts | 22° |
| 2026-05-04 02:55 | 39.06946 | -74.67945 | 26600 ft | 434 kts | 22° |
| 2026-05-04 02:55 | 39.09513 | -74.65921 | 26352 ft | 432 kts | 22° |
| 2026-05-04 02:55 | 39.12069 | -74.63903 | 26109 ft | 430 kts | 22° |
| 2026-05-04 02:56 | 39.14611 | -74.61892 | 25854 ft | 428 kts | 22° |
| 2026-05-04 02:56 | 39.17145 | -74.59884 | 25596 ft | 425 kts | 22° |
| 2026-05-04 02:56 | 39.19658 | -74.57892 | 25348 ft | 423 kts | 22° |
| 2026-05-04 02:56 | 39.22165 | -74.55904 | 25103 ft | 421 kts | 22° |
| 2026-05-04 02:57 | 39.24655 | -74.53930 | 24854 ft | 419 kts | 22° |
| 2026-05-04 02:57 | 39.27108 | -74.51985 | 24359 ft | 418 kts | 22° |
| 2026-05-04 02:57 | 39.29588 | -74.50016 | 23822 ft | 417 kts | 22° |
| 2026-05-04 02:57 | 39.32033 | -74.48059 | 23520 ft | 409 kts | 22° |
| 2026-05-04 02:58 | 39.34437 | -74.46132 | 23053 ft | 404 kts | 23° |
| 2026-05-04 02:58 | 39.36814 | -74.44232 | 22576 ft | 399 kts | 23° |
| 2026-05-04 02:58 | 39.39135 | -74.42382 | 22099 ft | 395 kts | 23° |
| 2026-05-04 02:58 | 39.41475 | -74.40517 | 21624 ft | 392 kts | 23° |
| 2026-05-04 02:59 | 39.43784 | -74.38676 | 21156 ft | 389 kts | 24° |
| 2026-05-04 02:59 | 39.46075 | -74.36844 | 20706 ft | 385 kts | 24° |
| 2026-05-04 02:59 | 39.48344 | -74.35028 | 20268 ft | 382 kts | 24° |
| 2026-05-04 02:59 | 39.50593 | -74.33226 | 19831 ft | 378 kts | 25° |
| 2026-05-04 03:00 | 39.52799 | -74.31457 | 19410 ft | 375 kts | 25° |
| 2026-05-04 03:00 | 39.55009 | -74.29681 | 18999 ft | 372 kts | 25° |
| 2026-05-04 03:00 | 39.57201 | -74.27919 | 18594 ft | 369 kts | 26° |
| 2026-05-04 03:00 | 39.59283 | -74.25962 | 18184 ft | 371 kts | 34° |
| 2026-05-04 03:01 | 39.61245 | -74.23794 | 18015 ft | 370 kts | 34° |
| 2026-05-04 03:01 | 39.63210 | -74.21633 | 18043 ft | 371 kts | 34° |
| 2026-05-04 03:01 | 39.65182 | -74.19469 | 18042 ft | 371 kts | 34° |
| 2026-05-04 03:01 | 39.67153 | -74.17309 | 18036 ft | 371 kts | 34° |
| 2026-05-04 03:02 | 39.69105 | -74.15163 | 18008 ft | 360 kts | 34° |
| 2026-05-04 03:02 | 39.70928 | -74.13138 | 17638 ft | 341 kts | 35° |
| 2026-05-04 03:02 | 39.72707 | -74.11162 | 16946 ft | 333 kts | 35° |
| 2026-05-04 03:02 | 39.74453 | -74.09230 | 16213 ft | 327 kts | 35° |
| 2026-05-04 03:03 | 39.76177 | -74.07327 | 15493 ft | 322 kts | 35° |
| 2026-05-04 03:03 | 39.77872 | -74.05455 | 14789 ft | 318 kts | 36° |
| 2026-05-04 03:03 | 39.79548 | -74.03606 | 14110 ft | 313 kts | 36° |
| 2026-05-04 03:03 | 39.81200 | -74.01786 | 13398 ft | 309 kts | 36° |
| 2026-05-04 03:04 | 39.82824 | -73.99996 | 12684 ft | 304 kts | 36° |
| 2026-05-04 03:04 | 39.84502 | -73.98361 | 12339 ft | 298 kts | 28° |
| 2026-05-04 03:04 | 39.86284 | -73.97045 | 12016 ft | 293 kts | 24° |
| 2026-05-04 03:04 | 39.88067 | -73.95790 | 11685 ft | 290 kts | 24° |
| 2026-05-04 03:05 | 39.89833 | -73.94542 | 11350 ft | 287 kts | 24° |
| 2026-05-04 03:05 | 39.91581 | -73.93302 | 11077 ft | 284 kts | 24° |
| 2026-05-04 03:05 | 39.93294 | -73.92086 | 11039 ft | 284 kts | 24° |
| 2026-05-04 03:05 | 39.95034 | -73.90853 | 11042 ft | 285 kts | 24° |
| 2026-05-04 03:06 | 39.96775 | -73.89618 | 11041 ft | 284 kts | 24° |
| 2026-05-04 03:06 | 39.98517 | -73.88381 | 11040 ft | 284 kts | 24° |
| 2026-05-04 03:06 | 40.00253 | -73.87147 | 11038 ft | 284 kts | 24° |
| 2026-05-04 03:06 | 40.02036 | -73.86069 | 11039 ft | 280 kts | 13° |
| 2026-05-04 03:07 | 40.03915 | -73.85477 | 11040 ft | 277 kts | 7° |
| 2026-05-04 03:07 | 40.05793 | -73.84953 | 10816 ft | 275 kts | 8° |
| 2026-05-04 03:07 | 40.07658 | -73.84421 | 10458 ft | 273 kts | 8° |
| 2026-05-04 03:07 | 40.09473 | -73.83692 | 10112 ft | 276 kts | 22° |
| 2026-05-04 03:08 | 40.11156 | -73.82484 | 9743 ft | 275 kts | 22° |
| 2026-05-04 03:08 | 40.12854 | -73.81356 | 9333 ft | 273 kts | 21° |
| 2026-05-04 03:08 | 40.14533 | -73.80287 | 8939 ft | 272 kts | 20° |
| 2026-05-04 03:08 | 40.16232 | -73.79214 | 8538 ft | 271 kts | 20° |
| 2026-05-04 03:09 | 40.17925 | -73.78141 | 8131 ft | 270 kts | 20° |
| 2026-05-04 03:09 | 40.19612 | -73.77065 | 7735 ft | 269 kts | 20° |
| 2026-05-04 03:09 | 40.21293 | -73.75986 | 7344 ft | 269 kts | 20° |
| 2026-05-04 03:09 | 40.22967 | -73.74906 | 6961 ft | 268 kts | 21° |
| 2026-05-04 03:10 | 40.24635 | -73.73826 | 6579 ft | 267 kts | 20° |
| 2026-05-04 03:10 | 40.26299 | -73.72747 | 6180 ft | 267 kts | 21° |
| 2026-05-04 03:10 | 40.27960 | -73.71666 | 5778 ft | 266 kts | 21° |
| 2026-05-04 03:10 | 40.29613 | -73.70587 | 5381 ft | 265 kts | 21° |
| 2026-05-04 03:11 | 40.31256 | -73.69514 | 4990 ft | 264 kts | 21° |
| 2026-05-04 03:11 | 40.32895 | -73.68444 | 4588 ft | 263 kts | 21° |
| 2026-05-04 03:11 | 40.34489 | -73.67407 | 4192 ft | 262 kts | 21° |
| 2026-05-04 03:11 | 40.36124 | -73.66342 | 3795 ft | 262 kts | 21° |
| 2026-05-04 03:12 | 40.37739 | -73.65291 | 3399 ft | 262 kts | 21° |
| 2026-05-04 03:12 | 40.38906 | -73.64531 | 3245 ft | 257 kts | 21° |
| 2026-05-04 03:12 | 40.40451 | -73.63521 | 3084 ft | 245 kts | 21° |
| 2026-05-04 03:12 | 40.41963 | -73.62529 | 2691 ft | 242 kts | 21° |
| 2026-05-04 03:13 | 40.43462 | -73.61547 | 2259 ft | 241 kts | 21° |
| 2026-05-04 03:13 | 40.44735 | -73.60717 | 2016 ft | 240 kts | 21° |
| 2026-05-04 03:13 | 40.45968 | -73.59922 | 2017 ft | 242 kts | 21° |
| 2026-05-04 03:13 | 40.47473 | -73.58944 | 2008 ft | 242 kts | 21° |
| 2026-05-04 03:14 | 40.48970 | -73.57966 | 2005 ft | 243 kts | 21° |
| 2026-05-04 03:14 | 40.50483 | -73.56977 | 2003 ft | 241 kts | 20° |
| 2026-05-04 03:14 | 40.51995 | -73.56527 | 2003 ft | 208 kts | 351° |
| 2026-05-04 03:14 | 40.53293 | -73.57050 | 1972 ft | 189 kts | 324° |
| 2026-05-04 03:15 | 40.54160 | -73.58213 | 1889 ft | 168 kts | 298° |
| 2026-05-04 03:15 | 40.54721 | -73.59443 | 1816 ft | 149 kts | 298° |
| 2026-05-04 03:15 | 40.55253 | -73.60608 | 1817 ft | 156 kts | 298° |
| 2026-05-04 03:15 | 40.55824 | -73.61860 | 1815 ft | 165 kts | 298° |
| 2026-05-04 03:16 | 40.56419 | -73.63163 | 1809 ft | 167 kts | 298° |
| 2026-05-04 03:16 | 40.57017 | -73.64474 | 1810 ft | 167 kts | 298° |
| 2026-05-04 03:16 | 40.57616 | -73.65787 | 1805 ft | 167 kts | 298° |
| 2026-05-04 03:16 | 40.58191 | -73.67045 | 1796 ft | 151 kts | 297° |
| 2026-05-04 03:17 | 40.58717 | -73.68199 | 1734 ft | 144 kts | 297° |
| 2026-05-04 03:17 | 40.59224 | -73.69313 | 1579 ft | 141 kts | 297° |
| 2026-05-04 03:17 | 40.59721 | -73.70407 | 1409 ft | 139 kts | 297° |
| 2026-05-04 03:17 | 40.60087 | -73.71210 | 1282 ft | 138 kts | 297° |
| 2026-05-04 03:18 | 40.60412 | -73.71925 | 1147 ft | 138 kts | 297° |
| 2026-05-04 03:18 | 40.60903 | -73.73005 | 970 ft | 137 kts | 296° |
| 2026-05-04 03:18 | 40.61389 | -73.74100 | 753 ft | 141 kts | 296° |
| 2026-05-04 03:18 | 40.61885 | -73.75215 | 613 ft | 141 kts | 298° |
| 2026-05-04 03:19 | 40.62415 | -73.76305 | 354 ft | 143 kts | 297° |
| 2026-05-04 03:19 | 40.62918 | -73.77421 | 119 ft | 139 kts | 296° |
| 2026-05-04 03:19 | 40.63405 | -73.78494 | 19 ft | 130 kts | 296° |
| 2026-05-04 03:19 | 40.63773 | -73.79334 | 16 ft | 82 kts | 301° |
| 2026-05-04 03:20 | 40.63979 | -73.79792 | 16 ft | 38 kts | 300° |
| 2026-05-04 03:20 | 40.64095 | -73.79886 | 16 ft | 14 kts | 38° |
| 2026-05-04 03:20 | 40.64115 | -73.79864 | 16 ft | 0 kts | 38° |
| 2026-05-04 03:21 | 40.64117 | -73.79862 | 16 ft | 3 kts | 38° |
| 2026-05-04 03:21 | 40.64154 | -73.79787 | 16 ft | 13 kts | 75° |
| 2026-05-04 03:21 | 40.64155 | -73.79684 | 17 ft | 10 kts | 104° |
| 2026-05-04 03:22 | 40.64116 | -73.79586 | 16 ft | 15 kts | 120° |
| 2026-05-04 03:22 | 40.64053 | -73.79450 | 17 ft | 20 kts | 121° |
| 2026-05-04 03:22 | 40.63983 | -73.79284 | 16 ft | 20 kts | 121° |
| 2026-05-04 03:22 | 40.63916 | -73.79148 | 16 ft | 16 kts | 123° |
| 2026-05-04 03:23 | 40.63864 | -73.79040 | 17 ft | 12 kts | 122° |
| 2026-05-04 03:23 | 40.63822 | -73.78950 | 16 ft | 14 kts | 121° |
| 2026-05-04 03:23 | 40.63773 | -73.78839 | 16 ft | 14 kts | 120° |
| 2026-05-04 03:23 | 40.63709 | -73.78695 | 16 ft | 23 kts | 120° |
| 2026-05-04 03:24 | 40.63633 | -73.78519 | 16 ft | 20 kts | 122° |
| 2026-05-04 03:24 | 40.63565 | -73.78374 | 16 ft | 17 kts | 121° |
| 2026-05-04 03:24 | 40.63503 | -73.78236 | 16 ft | 20 kts | 120° |
| 2026-05-04 03:24 | 40.63435 | -73.78086 | 17 ft | 17 kts | 121° |
| 2026-05-04 03:25 | 40.63417 | -73.77956 | 16 ft | 13 kts | 70° |
| 2026-05-04 03:25 | 40.63460 | -73.77867 | 16 ft | 12 kts | 36° |
| 2026-05-04 03:25 | 40.63568 | -73.77789 | 16 ft | 22 kts | 25° |
| 2026-05-04 03:25 | 40.63698 | -73.77687 | 16 ft | 20 kts | 33° |
| 2026-05-04 03:26 | 40.63806 | -73.77599 | 17 ft | 16 kts | 31° |
| 2026-05-04 03:26 | 40.63893 | -73.77532 | 16 ft | 13 kts | 30° |
| 2026-05-04 03:26 | 40.63958 | -73.77481 | 16 ft | 10 kts | 31° |
| 2026-05-04 03:26 | 40.64045 | -73.77413 | 16 ft | 19 kts | 31° |
| 2026-05-04 03:27 | 40.64155 | -73.77324 | 16 ft | 17 kts | 31° |
| 2026-05-04 03:27 | 40.64246 | -73.77254 | 16 ft | 15 kts | 30° |
| 2026-05-04 03:27 | 40.64332 | -73.77188 | 16 ft | 13 kts | 30° |
| 2026-05-04 03:27 | 40.64407 | -73.77129 | 16 ft | 15 kts | 30° |
| 2026-05-04 03:28 | 40.64528 | -73.77090 | 16 ft | 20 kts | 358° |
| 2026-05-04 03:28 | 40.64652 | -73.77100 | 16 ft | 16 kts | 346° |
| 2026-05-04 03:28 | 40.64725 | -73.77188 | 17 ft | 15 kts | 303° |
| 2026-05-04 03:28 | 40.64789 | -73.77331 | 16 ft | 21 kts | 300° |
| 2026-05-04 03:29 | 40.64862 | -73.77500 | 16 ft | 20 kts | 300° |
| 2026-05-04 03:29 | 40.64927 | -73.77645 | 16 ft | 17 kts | 301° |
| 2026-05-04 03:29 | 40.64995 | -73.77799 | 16 ft | 21 kts | 298° |
| 2026-05-04 03:29 | 40.65066 | -73.77945 | 17 ft | 17 kts | 302° |
| 2026-05-04 03:30 | 40.65051 | -73.78065 | 16 ft | 13 kts | 244° |
| 2026-05-04 03:30 | 40.65043 | -73.78153 | 16 ft | 7 kts | 249° |
| 2026-05-04 03:30 | 40.65037 | -73.78167 | 16 ft | 0 kts | 243° |